Terminal Aerodrome Forecast
Issued by NWS Cleveland, OH

Home | Current Version | Previous Version | Text Only | Print | Product List | Glossary On
Versions: 1 2 3 4 5 6 7 8 9 10 11 12 13 14 15 16 17 18 19 20
000
FTUS41 KCLE 120533
TAFYNG
TAF
KYNG 120533Z 1206/1306 VRB03KT 6SM -SN OVC035
      TEMPO 1206/1209 3SM -SN OVC025
     FM120900 26010KT 1 1/2SM -SN OVC015
     FM121300 30015G25KT 6SM -SHSN OVC025=

USA.gov is the U.S. government's official web portal to all federal, state and local government web resources and services.